Airfield :







YOU CAN JOIN US ON...

 
LOGIN :

Register | Disclaimer

   EN    FR    IT 

 









Legend :    VFR   Marginal VFR   IFR   Intensive IFR   Very Intensive IFR
Visi :
Ceiling :
>= 8 km
>= 3000ft
5 to 8 km
1000 to 3000 ft
1500m to 5 km
500 to 1000 ft
800 to 1500m
200 to 500 ft
< 800m
< 200 ft
Symbols :   Thunderstorms  Fog  Heavy snow  Heavy precipitations  Wind > 20 kt






- Airport Elevation : 357 ft
- IATA code : YSJ


CYSJ - Saint John

CURRENT METAR :
  • 250100Z 27006KT 15SM FEW065 12/06 A2958 RMK SC1 SLP021 DENSITY ALT 600FT

EXPIRED METARs :
  • 250000Z 30010G18KT 15SM SCT250 13/06 A2955 RMK CI3 SLP010 DENSITY ALT 700FT
  • 242300Z 30012G20KT 15SM SCT250 14/05 A2951 RMK CI4 SLP996 DENSITY ALT 800FT

TAF TAF CYSJ
Valid from the 25 at 00:00 until the 25 at 12:00 UTC


242340Z 2500/2512 30010G20KT P6SM FEW050 SCT250
BECMG 2502/2504 29010KT
FM250600 27008KT P6SM SKC RMK NXT FCST BY 250600Z
CZQM FIR / North America



MET'MAP, your aeronautical weather chart ! - Copyright ORBIFLY December 2007 - Disclaimer

ORBIFLY MET'MAP TEAM :

Programming & Development : Alexandra Zaïnal
Original concept : Baudouin d'Aumeries
Technical & hardware support : Manuel Goepfert
Assistance : Marc-Olivier Méhu




SOURCES & CREDITS :

   NOAA